Time;durP1;ratioP1;P1;durP2;ratioP2;P2;SDS_P1;SDS_P2;PMS_P1;PMS_P2;Temp;Humidity;BMP_temperature;BMP_pressure;BME280_temperature;BME280_humidity;BME280_pressure;Samples;Min_cycle;Max_cycle;Signal;HPM_P1;HPM_P2
2023/04/13 00:01:07;;;;;;;0.67;0.20;;;14.40;99.90;;;14.50;50.70;99437.56;6076093;22;99502;-51
2023/04/13 00:03:35;;;;;;;0.23;0.00;;;14.10;99.90;;;14.46;51.32;99430.75;6066979;22;97529;-53
2023/04/13 00:06:01;;;;;;;0.37;0.20;;;14.00;99.90;;;14.36;48.73;99432.34;6072653;22;97736;-49
2023/04/13 00:08:29;;;;;;;0.30;0.10;;;14.00;99.90;;;14.41;50.48;99426.72;6094823;22;99951;-51
2023/04/13 00:10:56;;;;;;;0.37;0.20;;;14.10;99.90;;;14.33;48.29;99432.56;6069072;22;97450;-52
2023/04/13 00:13:23;;;;;;;1.03;0.03;;;14.10;99.90;;;14.19;46.85;99430.88;6093597;22;97563;-51
2023/04/13 00:15:49;;;;;;;0.00;0.00;;;13.90;99.90;;;14.27;48.76;99427.69;6098070;22;97824;-51
2023/04/13 00:18:15;;;;;;;0.27;0.10;;;13.90;99.90;;;14.23;49.34;99420.91;6093708;22;122503;-51
2023/04/13 00:20:42;;;;;;;0.20;0.10;;;13.90;99.90;;;14.19;49.90;99414.13;6099565;22;97675;-50
2023/04/13 00:23:08;;;;;;;0.10;0.03;;;13.80;99.90;;;14.31;50.58;99418.53;6092408;22;97562;-52
2023/04/13 00:25:34;;;;;;;1.00;0.40;;;14.00;99.90;;;14.14;50.61;99416.22;6097541;22;97365;-52
2023/04/13 00:28:05;;;;;;;0.27;0.00;;;13.90;99.90;;;14.21;51.46;99409.56;6096367;22;97685;-51
2023/04/13 00:30:31;;;;;;;0.20;0.17;;;13.90;99.90;;;14.06;47.04;99403.53;6095184;22;97425;-49
2023/04/13 00:32:57;;;;;;;0.10;0.10;;;14.00;99.90;;;14.20;51.22;99405.22;6070389;22;97723;-48
2023/04/13 00:35:23;;;;;;;0.43;0.00;;;14.00;99.90;;;14.13;47.59;99404.78;6065197;22;123881;-48
2023/04/13 00:37:50;;;;;;;1.87;0.20;;;14.00;99.90;;;14.22;51.26;99403.28;6095297;22;98001;-52
2023/04/13 00:40:17;;;;;;;0.53;0.20;;;13.90;99.90;;;14.18;49.10;99392.06;6090689;22;97241;-50
2023/04/13 00:42:49;;;;;;;1.30;0.17;;;14.00;99.90;;;14.16;50.71;99403.72;6098347;22;97570;-49
2023/04/13 00:45:16;;;;;;;2.03;0.30;;;13.90;99.90;;;14.02;46.90;99395.88;6092623;22;98925;-48
2023/04/13 00:47:45;;;;;;;0.30;0.30;;;13.90;99.90;;;14.10;51.41;99393.53;6097802;22;97286;-49
2023/04/13 00:50:11;;;;;;;1.70;0.10;;;13.80;99.90;;;14.22;51.32;99398.00;6093835;22;97195;-49
2023/04/13 00:52:38;;;;;;;0.50;0.13;;;14.00;99.90;;;14.02;51.11;99395.88;6046915;22;98891;-49
2023/04/13 00:55:06;;;;;;;0.17;0.10;;;13.80;99.90;;;13.94;48.69;99397.25;6066173;22;97499;-52
2023/04/13 00:57:33;;;;;;;1.20;0.43;;;13.80;99.90;;;13.82;50.33;99395.47;6096542;22;97310;-51
2023/04/13 01:00:08;;;;;;;2.47;0.20;;;13.60;99.90;;;13.54;46.77;99396.50;6097441;22;97045;-51
2023/04/13 01:02:35;;;;;;;0.40;0.30;;;13.50;99.90;;;13.40;47.01;99393.91;6095717;22;96938;-49
2023/04/13 01:05:04;;;;;;;0.20;0.20;;;13.30;99.90;;;13.37;50.94;99396.78;6094399;22;98939;-57
2023/04/13 01:08:07;;;;;;;0.83;0.30;;;13.20;99.90;;;13.31;48.06;99398.06;6095393;22;100451;-52
2023/04/13 01:10:47;;;;;;;0.30;0.10;;;13.10;99.90;;;13.36;49.96;99403.88;6093599;22;97452;-49
2023/04/13 01:13:30;;;;;;;0.17;0.03;;;13.10;99.90;;;13.17;48.37;99395.44;6067680;22;97696;-46
2023/04/13 01:16:10;;;;;;;3.60;0.20;;;13.00;99.90;;;12.92;48.20;99390.91;6070989;22;99043;-52
2023/04/13 01:18:39;;;;;;;0.23;0.23;;;12.80;99.90;;;12.84;52.71;99387.03;6095316;22;101729;-49
2023/04/13 01:21:11;;;;;;;0.43;0.10;;;12.70;99.90;;;12.85;49.61;99397.53;6093301;22;97870;-53
2023/04/13 01:23:50;;;;;;;0.40;0.10;;;12.70;99.90;;;12.87;52.55;99389.47;6095763;22;99152;-49
2023/04/13 01:26:16;;;;;;;0.10;0.10;;;12.80;99.90;;;12.98;53.82;99386.97;6065205;22;97319;-48
2023/04/13 01:28:43;;;;;;;0.10;0.10;;;12.80;99.90;;;12.77;51.27;99392.75;6071758;22;97637;-51
2023/04/13 01:31:12;;;;;;;0.37;0.20;;;12.70;99.90;;;12.74;50.82;99395.59;6094382;22;96887;-51
2023/04/13 01:33:41;;;;;;;0.53;0.10;;;12.70;99.90;;;12.54;48.35;99385.41;6098489;22;97410;-51
2023/04/13 01:36:10;;;;;;;0.10;0.10;;;12.60;99.90;;;12.51;48.36;99388.25;6064331;22;97855;-48
2023/04/13 01:38:36;;;;;;;0.50;0.30;;;12.50;99.90;;;12.53;48.54;99399.59;6099315;22;97775;-52
2023/04/13 01:41:02;;;;;;;0.10;0.10;;;12.50;99.90;;;12.56;51.80;99396.75;6094434;22;97359;-56
2023/04/13 01:43:29;;;;;;;0.10;0.10;;;12.50;99.90;;;12.57;48.46;99393.16;6095737;22;97044;-52
2023/04/13 01:46:07;;;;;;;0.53;0.43;;;12.60;99.90;;;12.62;52.90;99391.09;6099075;22;98326;-52
2023/04/13 01:48:44;;;;;;;0.07;0.00;;;12.50;99.90;;;12.51;50.60;99393.56;6067703;22;100579;-52
2023/04/13 01:51:18;;;;;;;0.30;0.10;;;12.50;99.90;;;12.67;51.49;99398.72;6065266;22;98011;-53
2023/04/13 01:54:00;;;;;;;0.17;0.10;;;12.70;99.90;;;12.64;48.39;99397.13;6069311;22;97818;-54
2023/04/13 01:56:27;;;;;;;0.47;0.20;;;12.60;99.90;;;12.54;49.68;99398.63;6067179;22;98875;-51
2023/04/13 01:58:59;;;;;;;0.23;0.03;;;12.50;99.90;;;12.45;51.05;99397.44;6099301;22;97735;-50
2023/04/13 02:01:25;;;;;;;1.50;0.20;;;12.50;99.90;;;12.45;48.38;99397.44;6067239;22;97311;-50
2023/04/13 02:03:51;;;;;;;0.10;0.10;;;12.50;99.90;;;12.39;48.55;99399.59;6069428;22;97842;-51
2023/04/13 02:06:18;;;;;;;0.40;0.07;;;12.50;99.90;;;12.58;49.62;99399.28;6064723;22;99095;-49
2023/04/13 02:08:44;;;;;;;0.20;0.17;;;12.50;99.90;;;12.58;50.80;99394.84;6098666;22;97570;-48
2023/04/13 02:11:11;;;;;;;0.10;0.10;;;12.60;99.90;;;12.51;48.94;99396.19;6095042;22;97230;-48
2023/04/13 02:13:37;;;;;;;0.43;0.10;;;12.50;99.90;;;12.40;48.56;99401.31;6096977;22;98067;-49
2023/04/13 02:16:05;;;;;;;0.10;0.10;;;12.40;99.90;;;12.40;48.56;99401.31;6092692;22;99664;-50
2023/04/13 02:18:32;;;;;;;0.20;0.10;;;12.40;99.90;;;12.33;49.01;99403.50;6096426;22;98502;-47
2023/04/13 02:21:08;;;;;;;0.30;0.13;;;12.40;99.90;;;12.20;48.58;99400.75;6096667;22;97726;-49
2023/04/13 02:23:39;;;;;;;0.47;0.30;;;12.30;99.90;;;12.47;54.07;99397.34;6065967;22;97462;-48
2023/04/13 02:26:11;;;;;;;0.20;0.20;;;12.30;99.90;;;12.44;49.40;99397.50;6094430;22;97871;-52
2023/04/13 02:28:39;;;;;;;0.00;0.00;;;12.40;99.90;;;12.71;52.50;99400.19;6107978;22;97815;-48
2023/04/13 02:31:05;;;;;;;1.40;0.10;;;12.70;99.90;;;12.57;50.70;99393.16;6096292;22;97319;-51
2023/04/13 02:33:32;;;;;;;0.20;0.20;;;12.60;99.90;;;12.51;49.27;99389.09;6100832;22;97349;-53
2023/04/13 02:36:00;;;;;;;0.73;0.30;;;12.60;99.90;;;12.58;50.12;99389.56;6074746;22;97350;-49
2023/04/13 02:38:27;;;;;;;0.30;0.10;;;12.50;99.90;;;12.74;49.25;99400.88;6103059;22;97147;-51
2023/04/13 02:41:00;;;;;;;0.10;0.10;;;12.70;99.90;;;12.68;48.44;99401.25;6106905;22;97480;-53
2023/04/13 02:43:27;;;;;;;1.20;0.00;;;12.70;99.90;;;12.63;47.98;99391.94;6094838;22;97757;-52
2023/04/13 02:45:53;;;;;;;0.83;0.30;;;12.60;99.90;;;12.59;48.46;99396.56;6100704;22;97110;-52
2023/04/13 02:48:20;;;;;;;1.43;0.03;;;12.60;99.90;;;12.61;48.50;99388.53;6098230;22;97240;-51
2023/04/13 02:50:47;;;;;;;1.23;0.00;;;12.50;99.90;;;12.62;49.13;99391.09;6097377;22;97329;-52
2023/04/13 02:53:15;;;;;;;0.30;0.20;;;12.50;99.90;;;12.64;49.33;99399.75;6066567;22;97697;-51
2023/04/13 02:55:42;;;;;;;0.50;0.10;;;12.60;99.90;;;12.73;51.39;99393.91;6097636;22;98466;-50
2023/04/13 02:58:10;;;;;;;0.80;0.20;;;12.60;99.90;;;12.65;48.79;99396.16;6090832;22;97510;-53
2023/04/13 03:00:37;;;;;;;0.47;0.10;;;12.60;99.90;;;12.68;48.83;99398.59;6097061;22;96998;-50
2023/04/13 03:03:03;;;;;;;0.17;0.03;;;12.60;99.90;;;12.75;50.13;99397.28;6068697;22;97982;-49
2023/04/13 03:05:32;;;;;;;0.77;0.27;;;12.60;99.90;;;12.72;48.71;99407.19;6071740;22;97333;-50
2023/04/13 03:07:58;;;;;;;0.10;0.07;;;12.60;99.90;;;12.81;49.70;99399.53;6099148;22;97664;-49
2023/04/13 03:10:25;;;;;;;0.07;0.07;;;12.70;99.90;;;12.90;49.24;99397.25;6091882;22;108121;-50
2023/04/13 03:12:51;;;;;;;0.23;0.10;;;12.70;99.90;;;12.74;48.87;99400.88;6098541;22;97515;-50
2023/04/13 03:15:17;;;;;;;0.47;0.10;;;12.60;99.90;;;12.60;48.60;99392.97;6066640;22;98111;-52
2023/04/13 03:17:44;;;;;;;0.07;0.00;;;12.60;99.90;;;12.66;49.67;99397.88;6099909;22;97129;-51
2023/04/13 03:20:12;;;;;;;0.10;0.10;;;12.50;99.90;;;12.75;49.64;99405.22;6067741;22;97542;-48
2023/04/13 03:22:38;;;;;;;1.07;0.00;;;12.60;99.90;;;12.72;48.81;99400.09;6099401;22;98085;-50
2023/04/13 03:25:06;;;;;;;1.80;0.40;;;12.70;99.90;;;12.73;50.03;99407.13;6092405;22;97629;-52
2023/04/13 03:27:31;;;;;;;0.13;0.13;;;12.60;99.90;;;12.70;50.55;99404.66;6073676;22;97971;-52
2023/04/13 03:29:57;;;;;;;0.00;0.00;;;12.60;99.90;;;12.52;48.59;99403.19;6098270;22;97467;-49
2023/04/13 03:32:23;;;;;;;0.00;0.00;;;12.50;99.90;;;12.52;49.89;99408.47;6094288;22;111329;-47
2023/04/13 03:34:49;;;;;;;0.00;0.00;;;12.40;99.90;;;12.53;51.86;99407.53;6099160;22;107603;-51
2023/04/13 03:37:14;;;;;;;1.83;0.27;;;12.30;99.90;;;12.37;49.17;99412.09;6092140;22;97303;-48
2023/04/13 03:39:41;;;;;;;0.20;0.10;;;12.30;99.90;;;12.42;49.76;99415.28;6094535;22;97612;-52
2023/04/13 03:42:06;;;;;;;0.20;0.13;;;12.30;99.90;;;12.61;52.26;99412.34;6087166;22;98260;-50
2023/04/13 03:44:32;;;;;;;0.00;0.00;;;12.40;99.90;;;12.68;49.80;99409.19;6095001;22;97872;-50
2023/04/13 03:47:00;;;;;;;0.33;0.07;;;12.60;99.90;;;12.75;51.80;99413.16;6098935;22;96774;-49
2023/04/13 03:49:26;;;;;;;0.30;0.00;;;12.60;99.90;;;12.81;51.89;99412.75;6066856;22;97274;-51
2023/04/13 03:51:51;;;;;;;1.50;0.10;;;12.70;99.90;;;12.78;49.57;99423.53;6069703;22;97423;-49
2023/04/13 03:54:17;;;;;;;1.13;0.10;;;12.70;99.90;;;12.63;49.27;99413.94;6093451;22;105424;-50
2023/04/13 03:56:43;;;;;;;1.87;0.13;;;12.60;99.90;;;12.57;49.22;99427.53;6097765;22;107877;-51
2023/04/13 03:59:09;;;;;;;0.40;0.10;;;12.50;99.90;;;12.56;49.65;99425.84;6092491;22;104036;-49
2023/04/13 04:01:34;;;;;;;0.00;0.00;;;12.50;99.90;;;12.56;52.83;99428.47;6088147;22;97245;-49
2023/04/13 04:04:00;;;;;;;0.00;0.00;;;12.40;99.90;;;12.50;50.36;99418.31;6095836;22;113426;-47
2023/04/13 04:06:26;;;;;;;0.00;0.00;;;12.40;99.90;;;12.31;49.82;99423.06;6091443;22;97507;-51
2023/04/13 04:08:52;;;;;;;2.10;0.30;;;12.30;99.90;;;12.39;50.65;99420.75;6096715;22;113068;-49
2023/04/13 04:11:18;;;;;;;0.17;0.10;;;12.30;99.90;;;12.35;50.03;99424.56;6094241;22;97490;-52
2023/04/13 04:13:44;;;;;;;1.50;0.20;;;12.30;99.90;;;12.35;50.01;99424.56;6100979;22;97922;-50
2023/04/13 04:16:10;;;;;;;0.23;0.20;;;12.20;99.90;;;12.39;51.78;99418.97;6092532;22;97310;-47
2023/04/13 04:18:37;;;;;;;0.40;0.10;;;12.30;99.90;;;12.25;50.43;99426.06;6099769;22;97457;-50
2023/04/13 04:21:03;;;;;;;3.23;0.33;;;12.20;99.90;;;12.23;51.81;99425.31;6067983;22;97485;-51
2023/04/13 04:23:29;;;;;;;0.63;0.27;;;12.20;99.90;;;12.38;52.05;99440.22;6095311;22;98976;-54
2023/04/13 04:25:58;;;;;;;0.87;0.20;;;12.30;99.90;;;12.32;51.09;99432.69;6097472;22;102851;-51
2023/04/13 04:28:24;;;;;;;0.13;0.00;;;12.20;99.90;;;12.49;51.38;99437.75;6095637;22;97986;-54
2023/04/13 04:30:54;;;;;;;0.33;0.17;;;12.40;99.90;;;12.57;51.76;99447.84;6098278;22;97189;-55
2023/04/13 04:33:23;;;;;;;0.00;0.00;;;12.40;99.90;;;12.64;51.51;99447.38;6094375;22;97516;-50
2023/04/13 04:35:50;;;;;;;1.30;0.00;;;12.50;99.90;;;12.60;50.66;99453.81;6097996;22;98028;-51
2023/04/13 04:38:21;;;;;;;0.47;0.27;;;12.50;99.90;;;12.60;53.27;99445.88;6092821;22;97574;-48
2023/04/13 04:40:48;;;;;;;0.10;0.10;;;12.40;99.90;;;12.57;51.29;99459.28;6098561;22;97734;-49
2023/04/13 04:43:14;;;;;;;0.00;0.00;;;12.40;99.90;;;12.32;51.33;99467.06;6093227;22;97989;-47
2023/04/13 04:45:42;;;;;;;0.10;0.00;;;12.20;99.90;;;12.46;52.60;99475.00;6103023;22;97181;-48
2023/04/13 04:48:14;;;;;;;0.30;0.20;;;12.20;99.90;;;12.45;50.54;99473.28;6101882;22;97250;-52
2023/04/13 04:50:43;;;;;;;1.60;0.20;;;12.40;99.90;;;12.33;52.70;99484.63;6105153;22;114788;-50
2023/04/13 04:53:12;;;;;;;0.23;0.10;;;12.30;99.90;;;12.46;50.74;99480.28;6100076;22;98675;-49
2023/04/13 04:55:38;;;;;;;0.13;0.10;;;12.40;99.90;;;12.40;50.76;99475.34;6079694;22;97380;-50
2023/04/13 04:58:05;;;;;;;0.93;0.00;;;12.40;99.90;;;12.56;53.30;99489.31;6107660;22;104582;-51
2023/04/13 05:00:31;;;;;;;0.10;0.10;;;12.50;99.90;;;12.50;50.37;99492.34;6097437;22;97454;-51
2023/04/13 05:02:59;;;;;;;0.13;0.10;;;12.50;99.90;;;12.26;50.89;99504.44;6107163;22;98324;-51
2023/04/13 05:05:25;;;;;;;0.27;0.00;;;12.30;99.90;;;12.49;51.49;99514.47;6096201;22;97495;-50
2023/04/13 05:07:51;;;;;;;0.00;0.00;;;12.50;99.90;;;12.42;51.49;99505.19;6098001;22;97687;-51
2023/04/13 05:10:16;;;;;;;0.10;0.07;;;12.40;99.90;;;12.54;51.33;99495.66;6094283;22;97162;-48
2023/04/13 05:12:42;;;;;;;0.33;0.03;;;12.60;99.90;;;12.46;50.43;99514.66;6104798;22;103987;-50
2023/04/13 05:15:08;;;;;;;1.10;0.10;;;12.60;99.90;;;12.50;51.14;99511.72;6094120;22;97420;-49
2023/04/13 05:17:35;;;;;;;0.03;0.03;;;12.60;99.90;;;12.65;53.30;99520.50;6097547;22;97973;-49
2023/04/13 05:20:05;;;;;;;0.10;0.00;;;12.50;99.90;;;12.73;52.40;99523.53;6097962;22;97176;-46
2023/04/13 05:22:31;;;;;;;0.00;0.00;;;12.70;99.90;;;12.63;50.24;99532.97;6092191;22;101617;-48
2023/04/13 05:24:57;;;;;;;0.10;0.00;;;12.70;99.90;;;12.54;52.93;99536.19;6096579;22;97822;-50
2023/04/13 05:27:23;;;;;;;0.43;0.13;;;12.50;99.90;;;12.68;51.03;99549.41;6094472;22;97326;-51
2023/04/13 05:29:49;;;;;;;0.13;0.00;;;12.60;99.90;;;12.75;52.22;99544.59;6100718;22;97390;-49
2023/04/13 05:32:15;;;;;;;0.00;0.00;;;12.70;99.90;;;12.88;50.37;99571.16;6092487;22;98457;-49
2023/04/13 05:34:40;;;;;;;1.60;0.10;;;12.80;99.90;;;13.10;51.36;99567.06;6097819;22;98437;-48
2023/04/13 05:37:08;;;;;;;2.30;0.50;;;13.00;99.90;;;12.86;50.02;99573.03;6091350;22;97451;-46
2023/04/13 05:39:34;;;;;;;0.10;0.00;;;12.80;99.90;;;12.79;51.48;99581.34;6071446;22;97462;-47
2023/04/13 05:42:00;;;;;;;0.10;0.10;;;12.70;99.90;;;12.78;52.16;99587.59;6097044;22;114026;-46
2023/04/13 05:44:26;;;;;;;0.00;0.00;;;12.60;99.90;;;12.80;50.68;99598.94;6094273;22;97766;-48
2023/04/13 05:46:52;;;;;;;0.00;0.00;;;12.60;99.90;;;12.66;50.31;99595.44;6070871;22;97676;-48
2023/04/13 05:49:18;;;;;;;0.20;0.10;;;12.60;99.90;;;12.68;51.99;99602.31;6094934;22;97315;-48
2023/04/13 05:51:44;;;;;;;0.60;0.10;;;12.50;99.90;;;12.67;51.32;99607.72;6097634;22;97920;-51
2023/04/13 05:54:12;;;;;;;0.00;0.00;;;12.60;99.90;;;12.85;50.87;99614.50;6094855;22;97129;-50
2023/04/13 05:56:39;;;;;;;0.00;0.00;;;12.70;99.90;;;12.74;50.89;99612.56;6101408;22;97899;-49
2023/04/13 05:59:05;;;;;;;0.00;0.00;;;12.60;99.90;;;12.89;50.60;99615.19;6094264;22;97458;-49
2023/04/13 06:01:30;;;;;;;0.00;0.00;;;12.70;99.90;;;12.72;50.38;99625.00;6096945;22;97773;-49
2023/04/13 06:03:58;;;;;;;0.20;0.10;;;12.60;99.90;;;12.79;49.46;99628.13;6097889;22;96996;-46
2023/04/13 06:06:24;;;;;;;0.30;0.10;;;12.60;99.90;;;12.58;50.11;99627.63;6093501;22;98614;-47
2023/04/13 06:08:51;;;;;;;0.30;0.00;;;12.50;99.90;;;12.48;50.81;99637.91;6078321;22;97171;-48
2023/04/13 06:11:17;;;;;;;0.10;0.00;;;12.40;99.90;;;12.75;51.97;99640.72;6094594;22;97240;-47
2023/04/13 06:13:43;;;;;;;0.10;0.10;;;12.50;99.90;;;12.80;51.92;99654.50;6098234;22;97096;-52
2023/04/13 06:16:09;;;;;;;0.57;0.10;;;12.60;99.90;;;12.63;50.10;99656.47;6091245;22;115706;-49
2023/04/13 06:18:36;;;;;;;0.17;0.10;;;12.50;99.90;;;12.43;50.06;99660.28;6095531;22;97541;-52
2023/04/13 06:21:02;;;;;;;0.50;0.13;;;12.30;99.90;;;12.50;51.75;99672.22;6091110;22;97300;-48
2023/04/13 06:23:28;;;;;;;0.00;0.00;;;12.40;99.90;;;12.48;51.11;99682.03;6092384;22;105192;-48
2023/04/13 06:25:53;;;;;;;0.10;0.10;;;12.40;99.90;;;12.56;50.46;99678.91;6094887;22;116770;-48
2023/04/13 06:28:20;;;;;;;0.87;0.10;;;12.40;99.90;;;12.68;53.03;99686.97;6068708;22;97022;-51
2023/04/13 06:30:46;;;;;;;0.10;0.10;;;12.50;99.90;;;12.70;51.06;99681.59;6090104;22;97548;-48
2023/04/13 06:33:13;;;;;;;1.27;0.10;;;12.50;99.90;;;12.71;50.08;99692.09;6090779;22;118529;-48
2023/04/13 06:35:39;;;;;;;2.27;0.20;;;12.60;99.90;;;12.70;52.28;99694.81;6097612;22;97186;-52
2023/04/13 06:38:06;;;;;;;0.00;0.00;;;12.50;99.90;;;12.60;50.70;99694.53;6091506;22;96949;-46
2023/04/13 06:40:32;;;;;;;0.43;0.13;;;12.50;99.90;;;12.57;50.77;99688.56;6097162;22;97758;-48
2023/04/13 06:42:58;;;;;;;1.30;0.07;;;12.50;99.90;;;12.49;51.10;99686.38;6093302;22;98911;-45
2023/04/13 06:45:23;;;;;;;0.77;0.20;;;12.40;99.90;;;12.71;51.52;99697.38;6090145;22;97745;-50
2023/04/13 06:47:51;;;;;;;0.00;0.00;;;12.50;99.90;;;12.58;50.97;99685.81;6095448;22;99456;-46
2023/04/13 06:50:17;;;;;;;0.20;0.10;;;12.50;99.90;;;12.60;52.37;99704.28;6089455;22;97902;-50
2023/04/13 06:52:46;;;;;;;0.20;0.10;;;12.50;99.90;;;12.67;52.67;99701.16;6065465;22;114399;-48
2023/04/13 06:55:12;;;;;;;0.20;0.10;;;12.50;99.90;;;12.72;50.91;99693.78;6092242;22;97564;-51
2023/04/13 06:57:39;;;;;;;0.50;0.20;;;12.60;99.90;;;12.86;52.39;99694.75;6096432;22;97188;-52
2023/04/13 07:00:09;;;;;;;0.17;0.10;;;12.70;99.90;;;12.76;50.61;99705.06;6092192;22;98278;-49
2023/04/13 07:02:36;;;;;;;0.33;0.10;;;12.60;99.90;;;12.79;52.48;99713.66;6095202;22;97474;-47
2023/04/13 07:05:01;;;;;;;0.50;0.20;;;12.70;99.90;;;12.90;51.45;99701.59;6094674;22;97790;-53
2023/04/13 07:07:27;;;;;;;0.30;0.10;;;12.70;99.90;;;12.95;51.86;99699.50;6091158;22;98180;-48
2023/04/13 07:09:53;;;;;;;1.13;0.13;;;12.70;99.90;;;12.72;50.85;99712.31;6096202;22;125722;-49
2023/04/13 07:12:19;;;;;;;0.20;0.10;;;12.70;99.90;;;12.77;51.21;99717.34;6096022;22;121095;-49
2023/04/13 07:14:45;;;;;;;0.37;0.10;;;12.60;99.90;;;12.91;52.95;99729.75;6104312;22;104652;-47
2023/04/13 07:17:12;;;;;;;0.30;0.20;;;12.70;99.90;;;13.00;51.56;99723.91;6100974;22;96995;-51
2023/04/13 07:19:37;;;;;;;0.40;0.23;;;12.80;99.90;;;12.81;50.72;99735.59;6105664;22;97398;-51
2023/04/13 07:22:03;;;;;;;0.07;0.00;;;12.80;99.90;;;12.80;51.60;99736.53;6103908;22;112674;-50
2023/04/13 07:24:29;;;;;;;0.20;0.10;;;12.70;99.90;;;12.78;52.62;99733.13;6101522;22;111911;-52
2023/04/13 07:26:56;;;;;;;0.87;0.10;;;12.70;99.90;;;12.72;52.79;99736.13;6107598;22;97367;-50
2023/04/13 07:29:23;;;;;;;0.40;0.30;;;12.60;99.90;;;12.80;51.14;99743.63;6098674;22;97981;-49
2023/04/13 07:31:49;;;;;;;1.30;0.00;;;12.70;99.90;;;12.82;51.67;99732.00;6095359;22;97992;-47
2023/04/13 07:34:16;;;;;;;0.10;0.10;;;12.70;99.90;;;12.72;51.00;99738.75;6091050;22;97610;-47
2023/04/13 07:36:42;;;;;;;0.17;0.17;;;12.70;99.90;;;12.87;51.09;99734.34;6096876;22;97376;-51
2023/04/13 07:39:08;;;;;;;0.20;0.20;;;12.70;99.90;;;12.96;52.11;99740.91;6089847;22;99395;-50
2023/04/13 07:41:37;;;;;;;0.27;0.10;;;12.80;99.90;;;13.06;51.35;99739.44;6097527;22;97200;-51
2023/04/13 07:44:04;;;;;;;0.43;0.07;;;13.00;99.90;;;12.99;51.86;99743.38;6092567;22;101166;-59
2023/04/13 07:46:31;;;;;;;0.00;0.00;;;12.90;99.90;;;12.95;50.88;99752.44;6092791;22;97482;-49
2023/04/13 07:48:57;;;;;;;0.00;0.00;;;12.80;99.90;;;12.97;51.68;99750.56;6068940;22;97658;-47
2023/04/13 07:51:23;;;;;;;0.10;0.10;;;12.80;99.90;;;13.05;50.75;99764.19;6089013;22;97751;-50
2023/04/13 07:53:51;;;;;;;0.20;0.00;;;12.90;99.90;;;13.06;50.27;99761.47;6097297;22;97315;-51
2023/04/13 07:56:17;;;;;;;0.60;0.13;;;13.00;99.90;;;13.14;50.26;99766.28;6087228;22;98032;-50
2023/04/13 07:58:44;;;;;;;0.40;0.20;;;13.00;99.90;;;13.10;51.99;99770.06;6096491;22;97146;-51
2023/04/13 08:01:10;;;;;;;0.83;0.10;;;13.00;99.90;;;13.14;51.38;99778.66;6066549;22;97892;-48
2023/04/13 08:03:36;;;;;;;1.40;0.10;;;13.00;99.90;;;13.16;50.91;99777.63;6097022;22;97312;-49
2023/04/13 08:06:09;;;;;;;0.67;0.20;;;13.10;99.90;;;13.30;51.72;99775.03;6096493;22;97615;-48
2023/04/13 08:08:35;;;;;;;0.43;0.10;;;13.20;99.90;;;13.18;50.47;99783.72;6066811;22;102508;-46
2023/04/13 08:11:01;;;;;;;0.30;0.10;;;13.10;99.90;;;13.36;51.14;99784.41;6087675;22;97807;-47
2023/04/13 08:13:28;;;;;;;0.40;0.10;;;13.30;99.90;;;13.21;50.38;99791.50;6091566;22;97708;-47
2023/04/13 08:15:56;;;;;;;0.13;0.00;;;13.10;99.90;;;13.13;51.68;99783.09;6093577;22;97801;-46
2023/04/13 08:18:23;;;;;;;0.23;0.10;;;13.10;99.90;;;13.14;52.25;99784.81;6089214;22;97349;-49
2023/04/13 08:20:49;;;;;;;0.30;0.30;;;13.00;99.90;;;13.17;51.61;99786.44;6094759;22;97392;-48
2023/04/13 08:23:15;;;;;;;0.10;0.10;;;13.00;99.90;;;13.27;50.96;99791.09;6095894;22;97593;-49
2023/04/13 08:25:41;;;;;;;0.00;0.00;;;13.10;99.90;;;13.14;51.12;99790.09;6072416;22;97399;-47
2023/04/13 08:28:08;;;;;;;0.17;0.10;;;13.10;99.90;;;13.11;51.95;99798.22;6066698;22;98472;-50
2023/04/13 08:30:34;;;;;;;0.67;0.10;;;13.00;99.90;;;13.24;50.53;99799.25;6100752;22;97318;-47
2023/04/13 08:33:01;;;;;;;0.57;0.10;;;13.10;99.90;;;13.37;51.74;99808.16;6098349;22;97565;-51
2023/04/13 08:35:27;;;;;;;0.10;0.10;;;13.20;99.90;;;13.29;50.92;99810.41;6090336;22;97207;-50
2023/04/13 08:37:53;;;;;;;0.20;0.10;;;13.20;99.90;;;13.19;51.28;99803.13;6096032;22;97933;-47
2023/04/13 08:40:19;;;;;;;0.13;0.13;;;13.10;99.90;;;13.19;51.43;99819.84;6072296;22;112407;-50
2023/04/13 08:42:46;;;;;;;0.73;0.30;;;13.00;99.90;;;13.34;50.81;99818.94;6075368;22;98060;-52
2023/04/13 08:45:13;;;;;;;0.63;0.20;;;13.20;99.90;;;13.30;51.92;99822.69;6070808;22;97850;-47
2023/04/13 08:47:40;;;;;;;0.20;0.20;;;13.10;99.90;;;13.47;51.51;99826.16;6067439;22;98041;-49
2023/04/13 08:50:07;;;;;;;0.20;0.20;;;13.30;99.90;;;13.37;51.76;99834.66;6068972;22;97734;-46
2023/04/13 08:52:35;;;;;;;0.30;0.20;;;13.20;99.90;;;13.45;52.29;99830.66;6069135;22;97232;-50
2023/04/13 08:55:03;;;;;;;0.63;0.30;;;13.30;99.90;;;13.52;51.13;99835.50;6071022;22;97224;-46
2023/04/13 08:57:30;;;;;;;0.57;0.30;;;13.40;99.90;;;13.43;51.70;99837.84;6039292;22;102824;-51
2023/04/13 08:59:57;;;;;;;0.60;0.40;;;13.30;99.90;;;13.46;52.01;99837.69;6066144;22;97938;-48
2023/04/13 09:02:30;;;;;;;1.00;0.50;;;13.30;99.90;;;13.57;51.07;99845.81;6063571;22;96880;-48
2023/04/13 09:05:02;;;;;;;1.50;0.60;;;13.40;99.90;;;13.50;51.18;99847.16;6074417;22;97347;-52
2023/04/13 09:07:33;;;;;;;1.70;0.40;;;13.40;99.90;;;13.59;51.56;99844.78;6020615;22;101928;-48
2023/04/13 09:10:00;;;;;;;1.67;0.30;;;13.40;99.90;;;13.70;50.75;99852.09;6050089;22;97342;-51
2023/04/13 09:12:33;;;;;;;0.30;0.30;;;13.60;99.90;;;13.65;50.96;99846.22;6071414;22;97106;-49
2023/04/13 09:14:59;;;;;;;1.77;0.43;;;13.60;99.90;;;13.84;50.67;99854.75;6075939;22;97743;-48
2023/04/13 09:17:31;;;;;;;1.73;0.70;;;13.70;99.90;;;13.66;50.49;99861.19;6069524;22;97948;-50
2023/04/13 09:20:12;;;;;;;0.60;0.47;;;13.60;99.90;;;13.59;50.35;99860.69;6052648;22;98923;-49
2023/04/13 09:22:38;;;;;;;0.67;0.60;;;13.50;99.90;;;13.80;49.62;99863.84;6070498;22;97663;-50
2023/04/13 09:25:06;;;;;;;0.83;0.50;;;13.70;99.90;;;13.60;51.53;99867.72;6068978;22;98626;-51
2023/04/13 09:27:34;;;;;;;0.50;0.40;;;13.50;99.90;;;13.60;51.90;99880.97;6067991;22;97334;-51
2023/04/13 09:30:01;;;;;;;0.73;0.53;;;13.50;99.90;;;13.47;53.29;99882.63;6070825;22;97721;-49
2023/04/13 09:32:27;;;;;;;1.97;0.40;;;13.40;99.90;;;13.79;51.69;99882.47;6063460;22;97934;-48
2023/04/13 09:35:07;;;;;;;2.30;0.47;;;13.60;99.90;;;13.94;51.50;99893.00;6045101;22;98624;-47
2023/04/13 09:37:36;;;;;;;3.43;0.87;;;13.80;99.90;;;14.11;50.64;99894.59;6062801;22;100597;-51
2023/04/13 09:40:14;;;;;;;1.77;0.43;;;14.20;99.90;;;14.14;52.04;99898.84;6039745;22;97926;-49
2023/04/13 09:43:03;;;;;;;4.30;0.70;;;14.20;99.90;;;14.17;50.99;99893.34;6063678;22;97567;-46
2023/04/13 09:45:43;;;;;;;0.40;0.20;;;14.10;99.90;;;14.32;49.74;99903.03;6064369;22;98414;-48
2023/04/13 09:48:20;;;;;;;2.23;0.70;;;14.30;99.90;;;14.46;50.17;99910.13;6064877;22;97908;-49
2023/04/13 09:50:57;;;;;;;1.43;0.53;;;14.50;99.90;;;14.55;49.92;99907.75;6040157;22;97604;-49
2023/04/13 09:53:23;;;;;;;0.83;0.50;;;14.60;99.90;;;14.67;49.40;99910.56;6059586;22;97914;-52
2023/04/13 09:55:58;;;;;;;0.30;0.27;;;14.70;99.90;;;14.51;52.75;99906.25;6047039;22;106896;-46
2023/04/13 09:58:25;;;;;;;1.37;0.73;;;14.40;99.90;;;14.39;51.95;99909.66;6072256;22;98647;-49
2023/04/13 10:00:52;;;;;;;1.80;0.50;;;14.30;99.90;;;14.18;51.38;99911.00;6050746;22;97226;-48
2023/04/13 10:03:20;;;;;;;5.33;0.83;;;14.10;99.90;;;14.07;52.38;99897.56;6076336;22;97434;-47
2023/04/13 10:05:47;;;;;;;2.50;0.50;;;14.00;99.90;;;14.08;51.93;99904.56;6075183;22;97221;-52
2023/04/13 10:08:13;;;;;;;2.80;0.50;;;13.90;99.90;;;13.98;53.09;99902.47;6065007;22;97977;-49
2023/04/13 10:10:39;;;;;;;1.00;0.80;;;13.90;99.90;;;13.83;51.34;99899.91;6070821;22;98355;-49
2023/04/13 10:13:17;;;;;;;1.23;0.50;;;13.80;99.90;;;13.93;53.02;99901.91;6041350;22;98143;-52
2023/04/13 10:16:12;;;;;;;1.53;0.57;;;13.90;99.90;;;14.13;51.63;99897.16;6021023;22;97426;-52
2023/04/13 10:19:00;;;;;;;4.30;0.70;;;14.00;99.90;;;14.16;51.59;99907.56;6016004;22;102328;-49
2023/04/13 10:21:39;;;;;;;1.03;0.70;;;14.20;99.90;;;14.11;52.07;99902.56;6051616;22;97939;-50